Time;durP1;ratioP1;P1;durP2;ratioP2;P2;SDS_P1;SDS_P2;PMS_P1;PMS_P2;Temp;Humidity;BMP_temperature;BMP_pressure;BME280_temperature;BME280_humidity;BME280_pressure;Samples;Min_cycle;Max_cycle;Signal;HPM_P1;HPM_P2
2022/09/26 00:00:31;;;;;;;0.75;0.52;;;;;;;;;;5092613;28;20024;-42
2022/09/26 00:02:56;;;;;;;1.33;0.63;;;;;;;;;;5092323;28;20036;-42
2022/09/26 00:05:22;;;;;;;1.00;0.63;;;;;;;;;;5091491;28;20024;-42
2022/09/26 00:07:47;;;;;;;0.57;0.45;;;;;;;;;;5092748;28;20024;-42
2022/09/26 00:10:12;;;;;;;2.17;0.80;;;;;;;;;;5091064;28;20016;-42
2022/09/26 00:12:38;;;;;;;0.60;0.60;;;;;;;;;;5092181;28;20050;-43
2022/09/26 00:15:03;;;;;;;10.02;1.67;;;;;;;;;;5092492;28;20027;-42
2022/09/26 00:17:29;;;;;;;1.75;0.80;;;;;;;;;;5092429;28;20047;-45
2022/09/26 00:19:54;;;;;;;1.15;0.70;;;;;;;;;;5092506;28;20016;-42
2022/09/26 00:22:20;;;;;;;1.80;1.02;;;;;;;;;;5090752;28;20040;-42
2022/09/26 00:24:45;;;;;;;0.73;0.65;;;;;;;;;;5092004;28;20024;-42
2022/09/26 00:27:10;;;;;;;0.77;0.52;;;;;;;;;;5092019;28;20031;-42
2022/09/26 00:29:36;;;;;;;1.40;0.88;;;;;;;;;;5092051;28;20008;-42
2022/09/26 00:32:01;;;;;;;0.98;0.65;;;;;;;;;;5091782;28;20046;-42
2022/09/26 00:34:27;;;;;;;1.00;0.85;;;;;;;;;;5092188;28;20020;-42
2022/09/26 00:36:52;;;;;;;1.35;0.88;;;;;;;;;;5091750;28;20051;-42
2022/09/26 00:39:17;;;;;;;0.90;0.80;;;;;;;;;;5090642;28;20062;-42
2022/09/26 00:41:43;;;;;;;1.15;0.93;;;;;;;;;;5090418;28;20088;-42
2022/09/26 00:44:27;;;;;;;0.95;0.50;;;;;;;;;;5091952;28;20064;-42
2022/09/26 00:46:53;;;;;;;1.65;0.90;;;;;;;;;;5091478;28;20104;-42
2022/09/26 00:49:27;;;;;;;1.60;1.05;;;;;;;;;;5090460;28;20036;-42
2022/09/26 00:52:04;;;;;;;1.77;1.08;;;;;;;;;;5091597;28;20502;-42
2022/09/26 00:54:30;;;;;;;2.47;1.40;;;;;;;;;;5091733;28;20024;-43
2022/09/26 00:56:57;;;;;;;1.40;0.88;;;;;;;;;;5091592;28;20023;-42
2022/09/26 00:59:24;;;;;;;2.05;1.10;;;;;;;;;;5091644;28;20028;-42
2022/09/26 01:01:50;;;;;;;1.20;0.80;;;;;;;;;;5090087;28;20024;-42
2022/09/26 01:04:16;;;;;;;0.90;0.90;;;;;;;;;;5091543;28;20039;-42
2022/09/26 01:06:42;;;;;;;1.60;0.98;;;;;;;;;;5091611;28;20016;-42
2022/09/26 01:09:08;;;;;;;0.85;0.80;;;;;;;;;;5091439;28;20032;-42
2022/09/26 01:11:37;;;;;;;1.65;1.05;;;;;;;;;;5091671;28;20437;-42
2022/09/26 01:14:03;;;;;;;1.20;0.90;;;;;;;;;;5091274;28;20074;-42
2022/09/26 01:16:30;;;;;;;1.65;1.00;;;;;;;;;;5091342;28;20020;-42
2022/09/26 01:18:56;;;;;;;1.50;0.98;;;;;;;;;;5091329;28;20547;-42
2022/09/26 01:21:21;;;;;;;2.25;1.00;;;;;;;;;;5091308;28;20028;-42
2022/09/26 01:24:05;;;;;;;1.98;1.20;;;;;;;;;;5091205;28;20040;-42
2022/09/26 01:26:31;;;;;;;2.75;0.82;;;;;;;;;;5091323;28;20039;-42
2022/09/26 01:28:59;;;;;;;1.13;0.80;;;;;;;;;;5091167;28;20016;-42
2022/09/26 01:31:25;;;;;;;0.80;0.80;;;;;;;;;;5089923;28;20119;-42
2022/09/26 01:34:10;;;;;;;1.10;0.80;;;;;;;;;;5089873;28;20023;-42
2022/09/26 01:36:54;;;;;;;1.27;0.85;;;;;;;;;;5091225;28;20040;-42
2022/09/26 01:39:52;;;;;;;1.83;0.88;;;;;;;;;;5091509;28;20106;-42
2022/09/26 01:42:18;;;;;;;1.08;0.85;;;;;;;;;;5067110;28;20047;-42
2022/09/26 01:44:48;;;;;;;1.30;0.90;;;;;;;;;;5089610;28;20382;-42
2022/09/26 01:47:21;;;;;;;1.35;0.73;;;;;;;;;;5090971;28;20043;-42
2022/09/26 01:49:53;;;;;;;0.63;0.52;;;;;;;;;;5092355;28;20490;-42
2022/09/26 01:52:22;;;;;;;1.20;0.77;;;;;;;;;;5093754;28;20032;-43
2022/09/26 01:55:06;;;;;;;1.40;0.90;;;;;;;;;;5094946;28;20019;-42
2022/09/26 01:57:52;;;;;;;1.20;0.88;;;;;;;;;;5093600;28;20028;-42
2022/09/26 02:00:18;;;;;;;0.50;0.50;;;;;;;;;;5093116;28;20040;-42
2022/09/26 02:02:45;;;;;;;0.82;0.65;;;;;;;;;;5094983;28;20172;-42
2022/09/26 02:05:16;;;;;;;1.27;0.80;;;;;;;;;;5094633;28;20032;-42
2022/09/26 02:07:44;;;;;;;1.05;0.80;;;;;;;;;;5093468;28;20256;-42
2022/09/26 02:10:14;;;;;;;0.50;0.50;;;;;;;;;;5093407;28;20023;-42
2022/09/26 02:12:41;;;;;;;1.58;0.68;;;;;;;;;;5094605;28;20097;-42
2022/09/26 02:15:10;;;;;;;2.25;0.80;;;;;;;;;;5093258;28;20052;-42
2022/09/26 02:17:41;;;;;;;1.25;1.15;;;;;;;;;;5093265;28;20055;-42
2022/09/26 02:20:27;;;;;;;1.15;0.70;;;;;;;;;;5094457;28;20085;-42
2022/09/26 02:22:53;;;;;;;1.15;0.70;;;;;;;;;;5093043;28;20461;-42
2022/09/26 02:25:19;;;;;;;0.77;0.60;;;;;;;;;;5094429;28;20099;-42
2022/09/26 02:27:44;;;;;;;0.95;0.82;;;;;;;;;;5094367;28;20571;-42
2022/09/26 02:30:10;;;;;;;1.05;0.70;;;;;;;;;;5094272;28;20821;-42
2022/09/26 02:32:36;;;;;;;1.55;1.02;;;;;;;;;;5092864;28;20513;-42
2022/09/26 02:35:52;;;;;;;7.30;1.20;;;;;;;;;;5092836;28;20526;-42
2022/09/26 02:37:51;;;;;;;1.90;1.10;;;;;;;;;;5092768;28;20032;-42
2022/09/26 02:40:19;;;;;;;2.85;1.10;;;;;;;;;;5092919;28;20131;-42
2022/09/26 02:43:17;;;;;;;2.17;1.48;;;;;;;;;;5092669;28;20036;-42
2022/09/26 02:45:46;;;;;;;1.65;1.33;;;;;;;;;;5070539;28;20094;-42
2022/09/26 02:48:30;;;;;;;2.28;1.30;;;;;;;;;;5093885;28;20030;-42
2022/09/26 02:50:59;;;;;;;1.10;0.85;;;;;;;;;;5092485;28;20057;-42
2022/09/26 02:53:43;;;;;;;1.10;0.77;;;;;;;;;;5092598;28;20420;-42
2022/09/26 02:56:28;;;;;;;1.10;0.80;;;;;;;;;;5092430;28;20093;-42
2022/09/26 02:59:03;;;;;;;1.80;1.33;;;;;;;;;;5092457;28;20028;-41
2022/09/26 03:01:52;;;;;;;1.23;0.88;;;;;;;;;;5090985;28;20032;-43
2022/09/26 03:04:31;;;;;;;2.33;1.52;;;;;;;;;;5092318;28;20038;-42
2022/09/26 03:07:01;;;;;;;1.85;1.08;;;;;;;;;;5092268;28;20028;-42
2022/09/26 03:09:28;;;;;;;1.80;1.10;;;;;;;;;;5092219;28;20024;-42
2022/09/26 03:11:54;;;;;;;2.08;1.30;;;;;;;;;;5093521;28;20031;-42
2022/09/26 03:14:22;;;;;;;4.47;1.35;;;;;;;;;;5092186;28;20027;-42
2022/09/26 03:16:49;;;;;;;2.65;1.63;;;;;;;;;;5092110;28;20177;-42
2022/09/26 03:19:17;;;;;;;2.83;1.65;;;;;;;;;;5093372;28;20020;-42
2022/09/26 03:21:44;;;;;;;3.15;1.65;;;;;;;;;;5091885;28;20470;-42
2022/09/26 03:24:10;;;;;;;6.75;2.53;;;;;;;;;;5091784;28;20028;-42
2022/09/26 03:26:36;;;;;;;1.85;1.48;;;;;;;;;;5092005;28;20035;-42
2022/09/26 03:29:02;;;;;;;3.90;2.60;;;;;;;;;;5091815;28;20024;-42
2022/09/26 03:31:30;;;;;;;2.65;1.60;;;;;;;;;;5091806;28;20500;-42
2022/09/26 03:34:05;;;;;;;1.70;1.27;;;;;;;;;;5091797;28;20016;-42
2022/09/26 03:36:31;;;;;;;2.35;1.73;;;;;;;;;;5091769;28;20038;-49
2022/09/26 03:38:57;;;;;;;1.67;1.48;;;;;;;;;;5091589;28;20066;-42
2022/09/26 03:41:58;;;;;;;2.38;1.33;;;;;;;;;;5086488;28;20479;-42
2022/09/26 03:44:28;;;;;;;3.10;1.65;;;;;;;;;;5091590;28;20032;-42
2022/09/26 03:47:16;;;;;;;4.20;1.50;;;;;;;;;;5071293;28;20048;-42
2022/09/26 03:49:48;;;;;;;3.75;1.73;;;;;;;;;;5091566;28;20024;-42
2022/09/26 03:52:14;;;;;;;1.92;1.45;;;;;;;;;;5092788;28;20078;-42
2022/09/26 03:54:41;;;;;;;3.80;1.98;;;;;;;;;;5091402;28;20046;-42
2022/09/26 03:57:09;;;;;;;3.50;2.22;;;;;;;;;;5092784;28;20032;-42
2022/09/26 03:59:39;;;;;;;4.07;2.13;;;;;;;;;;5091280;28;20467;-42
2022/09/26 04:02:05;;;;;;;4.10;2.70;;;;;;;;;;5091027;28;20515;-42
2022/09/26 04:04:35;;;;;;;4.00;1.95;;;;;;;;;;5091234;28;20028;-42
2022/09/26 04:07:00;;;;;;;4.88;2.33;;;;;;;;;;5091008;28;20041;-42
2022/09/26 04:09:26;;;;;;;3.55;1.77;;;;;;;;;;5091170;28;20020;-42
2022/09/26 04:11:53;;;;;;;5.72;2.03;;;;;;;;;;5090658;28;20202;-42
2022/09/26 04:14:19;;;;;;;3.20;1.73;;;;;;;;;;5090969;28;20091;-42
2022/09/26 04:16:49;;;;;;;3.38;2.03;;;;;;;;;;5091042;28;20470;-42
2022/09/26 04:19:25;;;;;;;1.60;1.17;;;;;;;;;;5090876;28;20036;-42
2022/09/26 04:21:51;;;;;;;4.00;1.98;;;;;;;;;;5090837;28;20036;-42
2022/09/26 04:24:20;;;;;;;3.75;2.00;;;;;;;;;;5090841;28;20111;-42
2022/09/26 04:26:46;;;;;;;2.92;1.98;;;;;;;;;;5090706;28;20111;-42
2022/09/26 04:29:12;;;;;;;1.60;1.20;;;;;;;;;;5090649;28;20558;-42
2022/09/26 04:31:57;;;;;;;2.25;1.35;;;;;;;;;;5077960;28;20028;-42
2022/09/26 04:34:30;;;;;;;1.42;1.30;;;;;;;;;;5090639;28;20035;-42
2022/09/26 04:36:59;;;;;;;1.63;1.23;;;;;;;;;;5092124;28;20040;-42
2022/09/26 04:39:24;;;;;;;1.15;0.98;;;;;;;;;;5090669;28;20016;-42
2022/09/26 04:41:51;;;;;;;2.35;1.60;;;;;;;;;;5090368;28;20024;-42
2022/09/26 04:44:16;;;;;;;1.52;1.13;;;;;;;;;;5090479;28;20463;-42
2022/09/26 04:46:43;;;;;;;1.67;1.50;;;;;;;;;;5090489;28;20055;-42
2022/09/26 04:49:09;;;;;;;2.47;1.15;;;;;;;;;;5090353;28;20020;-42
2022/09/26 04:51:36;;;;;;;1.92;1.45;;;;;;;;;;5090249;28;20020;-42
2022/09/26 04:54:02;;;;;;;2.40;1.50;;;;;;;;;;5090185;28;20032;-42
2022/09/26 04:56:32;;;;;;;2.88;1.83;;;;;;;;;;5091850;28;20032;-42
2022/09/26 04:58:58;;;;;;;2.80;1.88;;;;;;;;;;5091565;28;20039;-42
2022/09/26 05:01:27;;;;;;;2.90;2.00;;;;;;;;;;5090525;28;20048;-42
2022/09/26 05:04:06;;;;;;;4.15;1.52;;;;;;;;;;5090127;28;20485;-42
2022/09/26 05:06:32;;;;;;;1.95;1.20;;;;;;;;;;5091838;28;20182;-42
2022/09/26 05:08:59;;;;;;;1.55;1.38;;;;;;;;;;5090115;28;20102;-42
2022/09/26 05:11:47;;;;;;;2.58;1.65;;;;;;;;;;5090240;28;20081;-42
2022/09/26 05:14:13;;;;;;;1.27;1.17;;;;;;;;;;5090150;28;20036;-42
2022/09/26 05:16:39;;;;;;;1.27;1.00;;;;;;;;;;5091322;28;20016;-42
2022/09/26 05:19:07;;;;;;;1.83;1.20;;;;;;;;;;5089984;28;20492;-42
2022/09/26 05:21:39;;;;;;;1.40;1.30;;;;;;;;;;5089887;28;20107;-42
2022/09/26 05:27:09;;;;;;;2.30;1.77;;;;;;;;;;5052755;28;20482;-42
2022/09/26 05:29:35;;;;;;;5.18;1.65;;;;;;;;;;5036089;28;20021;-42
2022/09/26 05:32:04;;;;;;;2.13;1.75;;;;;;;;;;5073315;28;20437;-42
2022/09/26 05:34:34;;;;;;;7.13;1.83;;;;;;;;;;5094129;28;20466;-42
2022/09/26 05:37:00;;;;;;;2.90;1.65;;;;;;;;;;5093958;28;20221;-42
2022/09/26 05:42:12;;;;;;;2.05;1.20;;;;;;;;;;5095421;28;20156;-42
2022/09/26 05:44:39;;;;;;;2.28;1.55;;;;;;;;;;5093889;28;20127;-42
2022/09/26 05:47:07;;;;;;;1.92;1.45;;;;;;;;;;5094872;28;20040;-42
2022/09/26 05:49:35;;;;;;;3.10;1.55;;;;;;;;;;5095137;28;20169;-42
2022/09/26 05:52:02;;;;;;;2.25;1.38;;;;;;;;;;5093628;28;20479;-42
2022/09/26 05:54:28;;;;;;;2.03;1.38;;;;;;;;;;5092970;28;20506;-42
2022/09/26 05:56:55;;;;;;;1.63;1.52;;;;;;;;;;5093657;28;20382;-42
2022/09/26 05:59:22;;;;;;;2.47;1.42;;;;;;;;;;5094889;28;20020;-42
2022/09/26 06:02:09;;;;;;;0.90;0.90;;;;;;;;;;5063044;28;20040;-42
2022/09/26 06:04:55;;;;;;;2.65;1.48;;;;;;;;;;5094889;28;20035;-42
2022/09/26 06:07:36;;;;;;;1.45;1.23;;;;;;;;;;5095024;28;20032;-42
2022/09/26 06:10:05;;;;;;;2.10;1.52;;;;;;;;;;5093368;28;20042;-42
2022/09/26 06:12:39;;;;;;;1.33;1.20;;;;;;;;;;5077820;28;20111;-42
2022/09/26 06:15:05;;;;;;;1.48;1.13;;;;;;;;;;5094798;28;20116;-42
2022/09/26 06:17:33;;;;;;;1.13;0.90;;;;;;;;;;5093308;28;20051;-42
2022/09/26 06:19:58;;;;;;;1.70;1.00;;;;;;;;;;5093214;28;20059;-42
2022/09/26 06:22:25;;;;;;;1.35;1.20;;;;;;;;;;5093055;28;20031;-42
2022/09/26 06:24:51;;;;;;;1.50;1.30;;;;;;;;;;5093179;28;20081;-42
2022/09/26 06:27:16;;;;;;;2.65;1.35;;;;;;;;;;5094330;28;20115;-42
2022/09/26 06:29:42;;;;;;;8.45;2.28;;;;;;;;;;5092912;28;20032;-42
2022/09/26 06:32:08;;;;;;;2.05;1.58;;;;;;;;;;5094267;28;20020;-42
2022/09/26 06:35:10;;;;;;;1.63;1.17;;;;;;;;;;5081210;28;20028;-42
2022/09/26 06:37:57;;;;;;;2.35;1.33;;;;;;;;;;5094471;28;20066;-42
2022/09/26 06:40:23;;;;;;;1.55;1.20;;;;;;;;;;5092901;28;20032;-42
2022/09/26 06:42:49;;;;;;;1.10;0.98;;;;;;;;;;5092631;28;20363;-42
2022/09/26 06:45:25;;;;;;;2.00;1.35;;;;;;;;;;5092724;28;20096;-42
2022/09/26 06:48:09;;;;;;;1.00;0.90;;;;;;;;;;5094021;28;20035;-42
2022/09/26 06:50:59;;;;;;;2.20;1.30;;;;;;;;;;5092516;28;20032;-42
2022/09/26 06:53:26;;;;;;;7.78;1.83;;;;;;;;;;5092637;28;20039;-42
2022/09/26 06:55:54;;;;;;;1.00;0.85;;;;;;;;;;5075982;28;20027;-42
2022/09/26 06:58:19;;;;;;;1.85;1.23;;;;;;;;;;5092526;28;20028;-42
2022/09/26 07:01:14;;;;;;;1.52;1.08;;;;;;;;;;5084041;28;20103;-42
2022/09/26 07:03:39;;;;;;;2.67;1.55;;;;;;;;;;5094001;28;20158;-42
2022/09/26 07:06:22;;;;;;;1.98;1.25;;;;;;;;;;5093888;28;20052;-42
2022/09/26 07:08:50;;;;;;;1.58;1.35;;;;;;;;;;5092317;28;20513;-42
2022/09/26 07:11:18;;;;;;;1.65;1.10;;;;;;;;;;5092046;28;20016;-42
2022/09/26 07:13:46;;;;;;;2.13;1.30;;;;;;;;;;5092261;28;20028;-42
2022/09/26 07:16:13;;;;;;;2.33;1.30;;;;;;;;;;5092154;28;20058;-42
2022/09/26 07:18:58;;;;;;;1.35;0.98;;;;;;;;;;5092087;28;20043;-42
2022/09/26 07:21:55;;;;;;;2.80;1.25;;;;;;;;;;5082173;28;20209;-42
2022/09/26 07:24:26;;;;;;;1.55;1.10;;;;;;;;;;5092024;28;20036;-42
2022/09/26 07:26:51;;;;;;;0.85;0.80;;;;;;;;;;5091975;28;20036;-42
2022/09/26 07:29:17;;;;;;;2.40;1.38;;;;;;;;;;5091757;28;20038;-42
2022/09/26 07:31:43;;;;;;;1.92;1.48;;;;;;;;;;5091810;28;20039;-42
2022/09/26 07:34:34;;;;;;;1.63;1.27;;;;;;;;;;5091831;28;20421;-42
2022/09/26 07:37:00;;;;;;;1.27;1.05;;;;;;;;;;5093140;28;20077;-42
2022/09/26 07:39:25;;;;;;;1.40;1.17;;;;;;;;;;5091683;28;20027;-42
2022/09/26 07:41:52;;;;;;;1.83;1.38;;;;;;;;;;5091541;28;20028;-42
2022/09/26 07:44:17;;;;;;;1.00;0.90;;;;;;;;;;5091506;28;20027;-42
2022/09/26 07:52:16;;;;;;;2.75;1.30;;;;;;;;;;5091350;28;20034;-42
2022/09/26 07:55:09;;;;;;;3.88;1.77;;;;;;;;;;5076386;28;20043;-42
2022/09/26 07:57:53;;;;;;;1.80;1.23;;;;;;;;;;5093018;28;20042;-42
2022/09/26 08:00:33;;;;;;;3.15;1.52;;;;;;;;;;5091377;28;20111;-42
2022/09/26 08:03:12;;;;;;;2.80;2.10;;;;;;;;;;5091163;28;20036;-42
2022/09/26 08:05:40;;;;;;;3.50;2.08;;;;;;;;;;5091267;28;20032;-42
2022/09/26 08:08:05;;;;;;;3.97;2.22;;;;;;;;;;5090995;28;20031;-42
2022/09/26 08:11:14;;;;;;;4.05;1.48;;;;;;;;;;5049680;28;20033;-43
2022/09/26 08:14:03;;;;;;;3.03;1.88;;;;;;;;;;5092042;28;20086;-42
2022/09/26 08:16:43;;;;;;;3.25;1.58;;;;;;;;;;5092587;28;20031;-42
2022/09/26 08:19:16;;;;;;;2.03;1.58;;;;;;;;;;5090960;28;20032;-42
2022/09/26 08:21:42;;;;;;;2.65;1.45;;;;;;;;;;5090785;28;20028;-42
2022/09/26 08:24:07;;;;;;;2.30;1.48;;;;;;;;;;5090768;28;20027;-42
2022/09/26 08:26:37;;;;;;;2.42;1.58;;;;;;;;;;5092213;28;20028;-42
2022/09/26 08:29:12;;;;;;;2.55;2.10;;;;;;;;;;5090695;28;20093;-42
2022/09/26 08:31:38;;;;;;;2.60;1.38;;;;;;;;;;5090721;28;20051;-42
2022/09/26 08:34:04;;;;;;;1.98;1.55;;;;;;;;;;5090687;28;20050;-42
2022/09/26 08:36:31;;;;;;;1.95;1.52;;;;;;;;;;5090662;28;20070;-43
2022/09/26 08:39:03;;;;;;;1.75;1.17;;;;;;;;;;5092182;28;20606;-42
2022/09/26 08:42:07;;;;;;;2.05;1.60;;;;;;;;;;5092093;28;20088;-42
2022/09/26 08:44:42;;;;;;;2.03;1.80;;;;;;;;;;5063203;28;20036;-43
2022/09/26 08:47:49;;;;;;;3.25;1.52;;;;;;;;;;5092254;28;20047;-42
2022/09/26 08:50:32;;;;;;;;;;;;;;;;;;5092476;28;20040;-42
2022/09/26 08:53:01;;;;;;;5.47;1.23;;;;;;;;;;5091985;28;19911;-42
2022/09/26 08:55:32;;;;;;;1.65;1.10;;;;;;;;;;5074095;28;20032;-42
2022/09/26 08:58:03;;;;;;;2.53;2.13;;;;;;;;;;5090187;28;20029;-42
2022/09/26 09:00:31;;;;;;;2.30;1.58;;;;;;;;;;5090301;28;20123;-42
2022/09/26 09:03:02;;;;;;;2.15;1.52;;;;;;;;;;5090181;28;20112;-42
2022/09/26 09:05:33;;;;;;;2.00;1.65;;;;;;;;;;5090178;28;20031;-42
2022/09/26 09:08:01;;;;;;;2.28;1.50;;;;;;;;;;5090152;28;20027;-42
2022/09/26 09:10:38;;;;;;;2.17;1.98;;;;;;;;;;5074948;28;20471;-42
2022/09/26 09:13:37;;;;;;;2.10;1.50;;;;;;;;;;5091502;28;20035;-42
2022/09/26 09:16:23;;;;;;;3.70;1.90;;;;;;;;;;5090673;28;20036;-42
2022/09/26 09:19:23;;;;;;;2.55;1.77;;;;;;;;;;5089960;28;20122;-42
2022/09/26 09:22:25;;;;;;;2.78;1.83;;;;;;;;;;5089939;28;20104;-42
2022/09/26 09:25:11;;;;;;;2.45;1.58;;;;;;;;;;5089971;28;20120;-42
2022/09/26 09:27:39;;;;;;;2.60;1.38;;;;;;;;;;5089944;28;20101;-43
2022/09/26 09:30:08;;;;;;;2.72;1.85;;;;;;;;;;5090020;28;20540;-42
2022/09/26 09:32:49;;;;;;;2.22;1.42;;;;;;;;;;5091408;28;20048;-44
2022/09/26 09:35:45;;;;;;;2.95;1.63;;;;;;;;;;5089670;28;20035;-42
2022/09/26 09:38:31;;;;;;;5.20;2.00;;;;;;;;;;5090815;28;20035;-42
2022/09/26 09:41:17;;;;;;;3.83;2.10;;;;;;;;;;5089565;28;20032;-42
2022/09/26 09:43:44;;;;;;;2.28;1.60;;;;;;;;;;5089581;28;20109;-42
2022/09/26 09:46:21;;;;;;;2.28;2.08;;;;;;;;;;5072674;28;20048;-42
2022/09/26 09:48:47;;;;;;;2.22;1.63;;;;;;;;;;5090819;28;20028;-41
2022/09/26 09:51:29;;;;;;;2.60;1.60;;;;;;;;;;5089455;28;20016;-42
2022/09/26 09:54:12;;;;;;;2.65;1.80;;;;;;;;;;5090588;28;20036;-42
2022/09/26 09:56:47;;;;;;;3.87;1.43;;;;;;;;;;5089683;28;20039;-42
2022/09/26 09:59:13;;;;;;;5.35;1.88;;;;;;;;;;5089400;28;20268;-42
2022/09/26 10:02:08;;;;;;;2.55;1.42;;;;;;;;;;5090596;28;20027;-42
2022/09/26 10:04:43;;;;;;;3.20;1.50;;;;;;;;;;5089514;28;20079;-42
2022/09/26 10:07:10;;;;;;;3.92;1.60;;;;;;;;;;5089255;28;20570;-42
2022/09/26 10:09:38;;;;;;;4.13;1.58;;;;;;;;;;5073335;28;20382;-42
2022/09/26 10:12:27;;;;;;;2.35;1.38;;;;;;;;;;5094589;28;20035;-42
2022/09/26 10:15:28;;;;;;;2.03;1.63;;;;;;;;;;4992553;28;20046;-42
2022/09/26 10:18:02;;;;;;;2.47;2.20;;;;;;;;;;5079252;28;20056;-42
2022/09/26 10:20:51;;;;;;;2.42;1.75;;;;;;;;;;5092892;28;20031;-42
2022/09/26 10:23:20;;;;;;;2.67;1.90;;;;;;;;;;5092779;28;20059;-42
2022/09/26 10:25:47;;;;;;;2.15;1.00;;;;;;;;;;5075984;28;20023;-42
2022/09/26 10:28:36;;;;;;;1.80;1.27;;;;;;;;;;5092719;28;20062;-42
2022/09/26 10:31:07;;;;;;;2.20;1.42;;;;;;;;;;5084980;28;20126;-43
2022/09/26 10:33:56;;;;;;;1.73;1.23;;;;;;;;;;5092892;28;20035;-42
2022/09/26 10:36:28;;;;;;;2.30;1.40;;;;;;;;;;5094203;28;20020;-42
2022/09/26 10:41:45;;;;;;;2.35;1.55;;;;;;;;;;5092615;28;20036;-42
2022/09/26 10:44:23;;;;;;;1.73;1.38;;;;;;;;;;5092310;28;20031;-42
2022/09/26 10:47:13;;;;;;;1.92;1.42;;;;;;;;;;5071962;28;20060;-42
2022/09/26 10:50:22;;;;;;;2.40;1.38;;;;;;;;;;5031059;28;20041;-42
2022/09/26 10:53:21;;;;;;;3.60;2.25;;;;;;;;;;5030948;28;20044;-42
2022/09/26 10:55:57;;;;;;;2.45;1.33;;;;;;;;;;5070437;28;20041;-42
2022/09/26 10:58:26;;;;;;;3.45;1.33;;;;;;;;;;5092480;28;20039;-42
2022/09/26 11:00:56;;;;;;;1.55;1.05;;;;;;;;;;5092349;28;20382;-45
2022/09/26 11:03:43;;;;;;;5.40;2.10;;;;;;;;;;5092093;28;20044;-42
2022/09/26 11:06:25;;;;;;;2.45;1.50;;;;;;;;;;5093790;28;20039;-42
2022/09/26 11:08:56;;;;;;;3.17;1.77;;;;;;;;;;5092068;28;20031;-43
2022/09/26 11:11:41;;;;;;;5.57;2.03;;;;;;;;;;5092659;28;20429;-43
2022/09/26 11:14:07;;;;;;;1.33;1.23;;;;;;;;;;5091936;28;20024;-43
2022/09/26 11:16:43;;;;;;;1.75;1.27;;;;;;;;;;5092066;28;20024;-42
2022/09/26 11:19:26;;;;;;;2.92;1.40;;;;;;;;;;5093093;28;20115;-42
2022/09/26 11:22:10;;;;;;;2.95;1.95;;;;;;;;;;5090941;28;20462;-42
2022/09/26 11:24:48;;;;;;;2.05;1.77;;;;;;;;;;5092159;28;20405;-45
2022/09/26 11:27:30;;;;;;;2.20;1.35;;;;;;;;;;5093184;28;20035;-42
2022/09/26 11:30:07;;;;;;;2.30;1.48;;;;;;;;;;5093126;28;20024;-42
2022/09/26 11:32:39;;;;;;;2.33;2.13;;;;;;;;;;5091954;28;20028;-42
2022/09/26 11:35:42;;;;;;;2.92;1.95;;;;;;;;;;5093169;28;20035;-42
2022/09/26 11:38:10;;;;;;;2.25;1.50;;;;;;;;;;5092981;28;20042;-42
2022/09/26 11:40:55;;;;;;;3.60;2.40;;;;;;;;;;5091639;28;20736;-42
2022/09/26 11:43:56;;;;;;;1.50;1.40;;;;;;;;;;5091621;28;20493;-42
2022/09/26 11:47:08;;;;;;;2.42;1.73;;;;;;;;;;5051070;28;20139;-43
2022/09/26 11:49:57;;;;;;;3.38;1.90;;;;;;;;;;5091438;28;20490;-42
2022/09/26 11:52:51;;;;;;;2.35;1.60;;;;;;;;;;5091588;28;20497;-42
2022/09/26 11:55:16;;;;;;;5.35;3.03;;;;;;;;;;5092557;28;20478;-43
2022/09/26 11:57:47;;;;;;;3.10;1.83;;;;;;;;;;5092726;28;20065;-43
2022/09/26 12:00:27;;;;;;;3.50;2.25;;;;;;;;;;5092434;28;20139;-42
2022/09/26 12:03:08;;;;;;;4.47;2.78;;;;;;;;;;5091211;28;20044;-42
2022/09/26 12:05:37;;;;;;;3.13;2.15;;;;;;;;;;5092610;28;20039;-42
2022/09/26 12:08:03;;;;;;;2.50;2.30;;;;;;;;;;5092463;28;20492;-42
2022/09/26 12:10:30;;;;;;;3.03;1.90;;;;;;;;;;5092394;28;20028;-42
2022/09/26 12:13:18;;;;;;;3.40;2.17;;;;;;;;;;5092531;28;20374;-42
2022/09/26 12:16:11;;;;;;;4.30;2.58;;;;;;;;;;5092392;28;20031;-42
2022/09/26 12:18:55;;;;;;;3.08;2.03;;;;;;;;;;5076380;28;20040;-42
2022/09/26 12:21:21;;;;;;;3.25;2.42;;;;;;;;;;5092433;28;20056;-42
2022/09/26 12:23:47;;;;;;;3.42;2.70;;;;;;;;;;5092066;28;20370;-42
2022/09/26 12:26:16;;;;;;;4.53;3.17;;;;;;;;;;5092080;28;20047;-42
2022/09/26 12:28:54;;;;;;;5.70;3.40;;;;;;;;;;5092423;28;20366;-42
2022/09/26 12:31:23;;;;;;;7.93;4.78;;;;;;;;;;5092199;28;20024;-42
2022/09/26 12:33:52;;;;;;;5.03;3.85;;;;;;;;;;5091658;28;20024;-42
2022/09/26 12:36:27;;;;;;;3.80;3.10;;;;;;;;;;5090704;28;20122;-42
2022/09/26 12:39:31;;;;;;;6.25;3.10;;;;;;;;;;5092093;28;20032;-42
2022/09/26 12:42:06;;;;;;;4.32;3.25;;;;;;;;;;5049086;28;20033;-43
2022/09/26 12:44:37;;;;;;;3.95;2.75;;;;;;;;;;5049265;28;20033;-42
2022/09/26 12:47:06;;;;;;;3.58;2.78;;;;;;;;;;5072977;28;20100;-42
2022/09/26 12:49:50;;;;;;;7.53;3.00;;;;;;;;;;5091753;28;20118;-43
2022/09/26 12:52:15;;;;;;;5.10;3.42;;;;;;;;;;5091600;28;20524;-43
2022/09/26 12:55:00;;;;;;;3.13;2.78;;;;;;;;;;5091985;28;20024;-43
2022/09/26 12:57:26;;;;;;;3.97;2.92;;;;;;;;;;5091771;28;20089;-42
2022/09/26 12:59:58;;;;;;;5.70;4.00;;;;;;;;;;5091562;28;20099;-43
2022/09/26 13:02:46;;;;;;;2.95;1.27;;;;;;;;;;5091433;28;20031;-42
2022/09/26 13:05:18;;;;;;;7.13;4.60;;;;;;;;;;5091367;28;20114;-42
2022/09/26 13:07:56;;;;;;;5.90;3.85;;;;;;;;;;5091772;28;20443;-45
2022/09/26 13:10:42;;;;;;;5.32;3.75;;;;;;;;;;5091596;28;20036;-42
2022/09/26 13:13:24;;;;;;;6.90;5.35;;;;;;;;;;5091656;28;20028;-42
2022/09/26 13:15:56;;;;;;;5.00;3.75;;;;;;;;;;5091400;28;20382;-42
2022/09/26 13:18:30;;;;;;;4.28;3.17;;;;;;;;;;5091386;28;20364;-42
2022/09/26 13:21:01;;;;;;;6.72;5.80;;;;;;;;;;5091323;28;20123;-42
2022/09/26 13:23:34;;;;;;;6.03;4.25;;;;;;;;;;5091455;28;20043;-46
2022/09/26 13:26:03;;;;;;;8.07;5.18;;;;;;;;;;5091319;28;20028;-42
2022/09/26 13:28:29;;;;;;;6.57;4.88;;;;;;;;;;5091350;28;20119;-42
2022/09/26 13:31:24;;;;;;;6.78;4.75;;;;;;;;;;5091258;28;20154;-42
2022/09/26 13:33:57;;;;;;;6.35;4.15;;;;;;;;;;5077037;28;20036;-42
2022/09/26 13:36:24;;;;;;;8.27;5.95;;;;;;;;;;5091062;28;20034;-42
2022/09/26 13:38:52;;;;;;;5.22;4.25;;;;;;;;;;5091464;28;20095;-42
2022/09/26 13:41:43;;;;;;;7.85;4.93;;;;;;;;;;5091361;28;20027;-42
2022/09/26 13:44:38;;;;;;;12.30;4.63;;;;;;;;;;5088807;28;20048;-42
2022/09/26 13:47:19;;;;;;;5.25;4.32;;;;;;;;;;5040524;28;20443;-43
2022/09/26 13:49:49;;;;;;;9.10;4.95;;;;;;;;;;5095094;28;20168;-42
2022/09/26 13:52:15;;;;;;;7.78;4.22;;;;;;;;;;5094934;28;20024;-42
2022/09/26 13:54:44;;;;;;;5.57;4.30;;;;;;;;;;5095083;28;20028;-42
2022/09/26 13:57:30;;;;;;;8.23;4.90;;;;;;;;;;5094823;28;20146;-42
2022/09/26 13:59:57;;;;;;;7.60;3.67;;;;;;;;;;5095321;28;20114;-42
2022/09/26 14:02:30;;;;;;;5.15;3.92;;;;;;;;;;5094816;28;20036;-42
2022/09/26 14:05:02;;;;;;;3.50;2.95;;;;;;;;;;5094738;28;20035;-42
2022/09/26 14:10:21;;;;;;;;;;;;;;;;;;5095096;28;20024;-42
2022/09/26 14:12:51;;;;;;;2.45;2.25;;;;;;;;;;5094927;28;19931;-42
2022/09/26 14:15:22;;;;;;;2.50;1.73;;;;;;;;;;5094794;28;20039;-42
2022/09/26 14:17:48;;;;;;;2.55;1.60;;;;;;;;;;5094665;28;20482;-42
2022/09/26 14:20:17;;;;;;;1.50;1.40;;;;;;;;;;5094500;28;20024;-42
2022/09/26 14:22:50;;;;;;;1.45;1.35;;;;;;;;;;5094536;28;20036;-42
2022/09/26 14:25:54;;;;;;;1.67;1.05;;;;;;;;;;5094416;28;20153;-43
2022/09/26 14:28:21;;;;;;;1.75;1.20;;;;;;;;;;5051631;28;20080;-42
2022/09/26 14:31:12;;;;;;;0.70;0.43;;;;;;;;;;5051659;28;20031;-42
2022/09/26 14:33:38;;;;;;;0.57;0.57;;;;;;;;;;5077112;28;20059;-42
2022/09/26 14:36:17;;;;;;;0.38;0.38;;;;;;;;;;5094507;28;20018;-42
2022/09/26 14:38:45;;;;;;;0.80;0.65;;;;;;;;;;5094397;28;20032;-42
2022/09/26 14:41:18;;;;;;;0.82;0.82;;;;;;;;;;5094196;28;20040;-42
2022/09/26 14:43:44;;;;;;;0.50;0.50;;;;;;;;;;5094148;28;20090;-42
2022/09/26 14:46:15;;;;;;;0.90;0.52;;;;;;;;;;5092460;28;20131;-42
2022/09/26 14:48:42;;;;;;;0.77;0.28;;;;;;;;;;5094280;28;20097;-42
2022/09/26 14:51:11;;;;;;;0.57;0.40;;;;;;;;;;5093835;28;20492;-42
2022/09/26 14:53:48;;;;;;;0.57;0.40;;;;;;;;;;5093947;28;20028;-42
2022/09/26 14:56:15;;;;;;;0.30;0.28;;;;;;;;;;5093651;28;20030;-42
2022/09/26 14:58:41;;;;;;;0.85;0.32;;;;;;;;;;5093896;28;20069;-42
2022/09/26 15:01:17;;;;;;;1.00;0.25;;;;;;;;;;5093484;28;20028;-42
2022/09/26 15:03:53;;;;;;;0.47;0.47;;;;;;;;;;5093699;28;20032;-42
2022/09/26 15:06:20;;;;;;;3.17;0.30;;;;;;;;;;5093618;28;20128;-42
2022/09/26 15:08:46;;;;;;;0.20;0.15;;;;;;;;;;5093974;28;20028;-42
2022/09/26 15:11:25;;;;;;;0.45;0.40;;;;;;;;;;5093605;28;20074;-42
2022/09/26 15:13:51;;;;;;;1.25;0.43;;;;;;;;;;5093642;28;20042;-42
2022/09/26 15:16:16;;;;;;;0.20;0.20;;;;;;;;;;5093380;28;20107;-42
2022/09/26 15:18:45;;;;;;;0.45;0.32;;;;;;;;;;5093479;28;20038;-42
2022/09/26 15:21:10;;;;;;;0.55;0.20;;;;;;;;;;5093601;28;20069;-42
2022/09/26 15:23:48;;;;;;;0.95;0.30;;;;;;;;;;5093249;28;20075;-42
2022/09/26 15:26:15;;;;;;;0.20;0.20;;;;;;;;;;5093724;28;20103;-42
2022/09/26 15:28:40;;;;;;;0.20;0.20;;;;;;;;;;5093294;28;20035;-43
2022/09/26 15:31:21;;;;;;;0.30;0.30;;;;;;;;;;5093201;28;20024;-42
2022/09/26 15:33:50;;;;;;;0.15;0.15;;;;;;;;;;5093392;28;20067;-42
2022/09/26 15:36:16;;;;;;;0.35;0.25;;;;;;;;;;5093347;28;20104;-42
2022/09/26 15:38:43;;;;;;;0.17;0.15;;;;;;;;;;5091829;28;20035;-42